Airfield :







YOU CAN JOIN US ON...

 
LOGIN :

Register | Disclaimer

   EN    FR    IT 

 









Legend :    VFR   Marginal VFR   IFR   Intensive IFR   Very Intensive IFR
Visi :
Ceiling :
>= 8 km
>= 3000ft
5 to 8 km
1000 to 3000 ft
1500m to 5 km
500 to 1000 ft
800 to 1500m
200 to 500 ft
< 800m
< 200 ft
Symbols :   Thunderstorms  Fog  Heavy snow  Heavy precipitations  Wind > 20 kt






- Airport Elevation : 23 ft
- IATA code : STT


TIST - King

CURRENT METAR :
  • 241953Z 14009KT 10SM CLR 28/22 A2990 RMK AO2 SLP125 T02830222

EXPIRED METARs :
  • 241853Z 14009KT 10SM CLR 29/23 A2991 RMK AO2 SLP128 T02890228
  • 241753Z 13008KT 10SM FEW023 29/23 A2993 RMK AO2 SLP134 T02890228 10294 20272 58018

TAF TIST
Valid from the 24 at 18:00 until the 25 at 18:00 UTC


241720Z 2418/2518 13010KT P6SM FEW025 FEW050
FM242200 09006KT P6SM SCT025 SCT050
FM251400 11009KT P6SM FEW025 SCT050
TJZS FIR / North America



MET'MAP, your aeronautical weather chart ! - Copyright ORBIFLY December 2007 - Disclaimer

ORBIFLY MET'MAP TEAM :

Programming & Development : Alexandra Zaïnal
Concept & original design : Baudouin d'Aumeries
Assistance for programming : Marc-Olivier Méhu
Technical & hardware support : Manuel Goepfert

Contact : metmap@orbifly.com




SOURCES & CREDITS :

   NOAA